sensor_id;sensor_type;location;lat;lon;timestamp;P1;durP1;ratioP1;P2;durP2;ratioP2
70313;SDS011;71040;47.526;18.986;2023-10-13T00:04:22;4.25;;;3.13;;
70313;SDS011;71040;47.526;18.986;2023-10-13T00:09:24;4.32;;;2.92;;
70313;SDS011;71040;47.526;18.986;2023-10-13T00:14:25;4.53;;;3.15;;
70313;SDS011;71040;47.526;18.986;2023-10-13T00:19:35;3.55;;;2.88;;
70313;SDS011;71040;47.526;18.986;2023-10-13T00:24:46;4.32;;;3.53;;
70313;SDS011;71040;47.526;18.986;2023-10-13T00:29:51;3.33;;;2.97;;
70313;SDS011;71040;47.526;18.986;2023-10-13T00:35:04;4.10;;;3.10;;
70313;SDS011;71040;47.526;18.986;2023-10-13T00:40:07;3.72;;;2.92;;
70313;SDS011;71040;47.526;18.986;2023-10-13T00:45:18;3.13;;;2.78;;
70313;SDS011;71040;47.526;18.986;2023-10-13T00:50:18;4.20;;;3.17;;
70313;SDS011;71040;47.526;18.986;2023-10-13T00:55:19;4.40;;;3.10;;
70313;SDS011;71040;47.526;18.986;2023-10-13T01:00:22;3.65;;;3.03;;
70313;SDS011;71040;47.526;18.986;2023-10-13T01:05:28;3.40;;;3.10;;
70313;SDS011;71040;47.526;18.986;2023-10-13T01:10:31;3.17;;;2.88;;
70313;SDS011;71040;47.526;18.986;2023-10-13T01:15:32;3.25;;;2.95;;
70313;SDS011;71040;47.526;18.986;2023-10-13T01:20:35;3.95;;;3.10;;
70313;SDS011;71040;47.526;18.986;2023-10-13T01:25:42;4.05;;;2.97;;
70313;SDS011;71040;47.526;18.986;2023-10-13T01:30:43;4.32;;;3.03;;
70313;SDS011;71040;47.526;18.986;2023-10-13T01:35:50;3.20;;;2.83;;
70313;SDS011;71040;47.526;18.986;2023-10-13T01:40:53;3.38;;;2.90;;
70313;SDS011;71040;47.526;18.986;2023-10-13T01:45:59;3.30;;;3.00;;
70313;SDS011;71040;47.526;18.986;2023-10-13T01:50:59;4.37;;;2.70;;
70313;SDS011;71040;47.526;18.986;2023-10-13T01:56:03;4.47;;;3.33;;
70313;SDS011;71040;47.526;18.986;2023-10-13T02:01:10;3.23;;;2.87;;
70313;SDS011;71040;47.526;18.986;2023-10-13T02:06:11;3.17;;;2.35;;
70313;SDS011;71040;47.526;18.986;2023-10-13T02:11:19;2.85;;;2.35;;
70313;SDS011;71040;47.526;18.986;2023-10-13T02:16:22;5.28;;;2.72;;
70313;SDS011;71040;47.526;18.986;2023-10-13T02:21:25;5.35;;;2.92;;
70313;SDS011;71040;47.526;18.986;2023-10-13T02:26:32;2.75;;;2.53;;
70313;SDS011;71040;47.526;18.986;2023-10-13T02:31:39;3.22;;;2.88;;
70313;SDS011;71040;47.526;18.986;2023-10-13T02:36:54;3.33;;;2.50;;
70313;SDS011;71040;47.526;18.986;2023-10-13T02:41:55;3.30;;;2.60;;
70313;SDS011;71040;47.526;18.986;2023-10-13T02:46:58;2.47;;;2.22;;
70313;SDS011;71040;47.526;18.986;2023-10-13T02:51:58;3.13;;;2.67;;
70313;SDS011;71040;47.526;18.986;2023-10-13T02:57:04;2.95;;;2.42;;
70313;SDS011;71040;47.526;18.986;2023-10-13T03:02:07;3.75;;;2.97;;
70313;SDS011;71040;47.526;18.986;2023-10-13T03:07:17;3.67;;;2.53;;
70313;SDS011;71040;47.526;18.986;2023-10-13T03:12:23;2.95;;;2.38;;
70313;SDS011;71040;47.526;18.986;2023-10-13T03:17:33;2.80;;;2.38;;
70313;SDS011;71040;47.526;18.986;2023-10-13T03:22:36;2.80;;;2.30;;
70313;SDS011;71040;47.526;18.986;2023-10-13T03:27:36;3.15;;;2.67;;
70313;SDS011;71040;47.526;18.986;2023-10-13T03:32:47;2.42;;;2.20;;
70313;SDS011;71040;47.526;18.986;2023-10-13T03:37:54;2.38;;;2.17;;
70313;SDS011;71040;47.526;18.986;2023-10-13T03:42:55;2.63;;;2.30;;
70313;SDS011;71040;47.526;18.986;2023-10-13T03:48:12;3.22;;;2.45;;
70313;SDS011;71040;47.526;18.986;2023-10-13T03:53:25;3.25;;;2.50;;
70313;SDS011;71040;47.526;18.986;2023-10-13T03:58:25;2.65;;;2.13;;
70313;SDS011;71040;47.526;18.986;2023-10-13T04:03:26;3.10;;;2.70;;
70313;SDS011;71040;47.526;18.986;2023-10-13T04:08:42;2.72;;;2.20;;
70313;SDS011;71040;47.526;18.986;2023-10-13T04:13:43;4.23;;;2.33;;
70313;SDS011;71040;47.526;18.986;2023-10-13T04:24:02;1.95;;;1.75;;
70313;SDS011;71040;47.526;18.986;2023-10-13T04:29:23;3.38;;;2.65;;
70313;SDS011;71040;47.526;18.986;2023-10-13T04:34:49;2.47;;;2.20;;
70313;SDS011;71040;47.526;18.986;2023-10-13T04:45:10;3.35;;;2.20;;
70313;SDS011;71040;47.526;18.986;2023-10-13T04:50:29;3.22;;;2.42;;
70313;SDS011;71040;47.526;18.986;2023-10-13T04:55:41;3.03;;;2.40;;
70313;SDS011;71040;47.526;18.986;2023-10-13T05:01:20;2.88;;;2.60;;
70313;SDS011;71040;47.526;18.986;2023-10-13T05:06:23;3.15;;;2.50;;
70313;SDS011;71040;47.526;18.986;2023-10-13T05:11:41;2.50;;;2.30;;
70313;SDS011;71040;47.526;18.986;2023-10-13T05:17:00;2.63;;;1.98;;
70313;SDS011;71040;47.526;18.986;2023-10-13T05:22:19;2.72;;;2.33;;
70313;SDS011;71040;47.526;18.986;2023-10-13T05:27:38;2.40;;;1.98;;
70313;SDS011;71040;47.526;18.986;2023-10-13T05:32:57;2.92;;;1.95;;
70313;SDS011;71040;47.526;18.986;2023-10-13T05:38:16;2.75;;;2.47;;
70313;SDS011;71040;47.526;18.986;2023-10-13T05:43:35;2.60;;;2.33;;
70313;SDS011;71040;47.526;18.986;2023-10-13T05:48:54;2.42;;;2.22;;
70313;SDS011;71040;47.526;18.986;2023-10-13T05:53:57;2.25;;;1.83;;
70313;SDS011;71040;47.526;18.986;2023-10-13T05:59:13;2.53;;;2.20;;
70313;SDS011;71040;47.526;18.986;2023-10-13T06:04:31;2.50;;;2.03;;
70313;SDS011;71040;47.526;18.986;2023-10-13T06:09:50;3.13;;;2.78;;
70313;SDS011;71040;47.526;18.986;2023-10-13T06:15:09;2.80;;;2.20;;
70313;SDS011;71040;47.526;18.986;2023-10-13T06:20:28;2.30;;;2.10;;
70313;SDS011;71040;47.526;18.986;2023-10-13T06:25:53;2.28;;;2.05;;
70313;SDS011;71040;47.526;18.986;2023-10-13T06:31:12;2.53;;;1.83;;
70313;SDS011;71040;47.526;18.986;2023-10-13T06:36:22;3.03;;;1.95;;
70313;SDS011;71040;47.526;18.986;2023-10-13T06:41:22;2.00;;;1.60;;
70313;SDS011;71040;47.526;18.986;2023-10-13T06:46:30;2.05;;;1.73;;
70313;SDS011;71040;47.526;18.986;2023-10-13T06:51:33;2.63;;;2.20;;
70313;SDS011;71040;47.526;18.986;2023-10-13T06:56:37;2.10;;;1.90;;
70313;SDS011;71040;47.526;18.986;2023-10-13T07:01:40;2.83;;;1.95;;
70313;SDS011;71040;47.526;18.986;2023-10-13T07:06:42;2.72;;;2.20;;
70313;SDS011;71040;47.526;18.986;2023-10-13T07:11:50;2.72;;;2.05;;
70313;SDS011;71040;47.526;18.986;2023-10-13T07:16:56;2.75;;;2.10;;
70313;SDS011;71040;47.526;18.986;2023-10-13T07:22:01;2.87;;;2.10;;
70313;SDS011;71040;47.526;18.986;2023-10-13T07:27:21;2.70;;;2.03;;
70313;SDS011;71040;47.526;18.986;2023-10-13T07:32:25;2.03;;;1.83;;
70313;SDS011;71040;47.526;18.986;2023-10-13T07:37:26;2.40;;;2.13;;
70313;SDS011;71040;47.526;18.986;2023-10-13T07:42:28;2.42;;;1.80;;
70313;SDS011;71040;47.526;18.986;2023-10-13T07:47:39;2.28;;;2.03;;
70313;SDS011;71040;47.526;18.986;2023-10-13T07:52:39;2.97;;;2.30;;
70313;SDS011;71040;47.526;18.986;2023-10-13T07:57:59;2.55;;;2.17;;
70313;SDS011;71040;47.526;18.986;2023-10-13T08:03:07;3.72;;;2.22;;
70313;SDS011;71040;47.526;18.986;2023-10-13T08:08:17;3.13;;;2.20;;
70313;SDS011;71040;47.526;18.986;2023-10-13T08:13:17;2.87;;;2.03;;
70313;SDS011;71040;47.526;18.986;2023-10-13T08:18:20;3.25;;;2.20;;
70313;SDS011;71040;47.526;18.986;2023-10-13T08:23:30;4.05;;;2.60;;
70313;SDS011;71040;47.526;18.986;2023-10-13T08:28:54;2.75;;;2.20;;
70313;SDS011;71040;47.526;18.986;2023-10-13T08:34:36;4.00;;;2.45;;
70313;SDS011;71040;47.526;18.986;2023-10-13T08:39:42;3.38;;;2.78;;
70313;SDS011;71040;47.526;18.986;2023-10-13T08:45:03;4.07;;;2.85;;
70313;SDS011;71040;47.526;18.986;2023-10-13T08:50:45;3.10;;;2.40;;
70313;SDS011;71040;47.526;18.986;2023-10-13T08:55:58;3.97;;;2.95;;
70313;SDS011;71040;47.526;18.986;2023-10-13T09:01:05;3.95;;;3.15;;
70313;SDS011;71040;47.526;18.986;2023-10-13T09:06:14;4.13;;;2.90;;
70313;SDS011;71040;47.526;18.986;2023-10-13T09:11:19;3.92;;;3.10;;
70313;SDS011;71040;47.526;18.986;2023-10-13T09:16:26;5.82;;;3.15;;
70313;SDS011;71040;47.526;18.986;2023-10-13T09:21:41;5.10;;;3.13;;
70313;SDS011;71040;47.526;18.986;2023-10-13T09:26:48;24.60;;;15.30;;
70313;SDS011;71040;47.526;18.986;2023-10-13T09:31:59;42.50;;;25.42;;
70313;SDS011;71040;47.526;18.986;2023-10-13T09:42:12;43.40;;;26.80;;
70313;SDS011;71040;47.526;18.986;2023-10-13T09:47:13;40.20;;;26.52;;
70313;SDS011;71040;47.526;18.986;2023-10-13T09:52:24;47.42;;;28.95;;
70313;SDS011;71040;47.526;18.986;2023-10-13T09:57:26;53.20;;;31.42;;
70313;SDS011;71040;47.526;18.986;2023-10-13T10:02:34;54.90;;;32.47;;
70313;SDS011;71040;47.526;18.986;2023-10-13T10:07:40;45.00;;;29.23;;
70313;SDS011;71040;47.526;18.986;2023-10-13T10:17:55;51.00;;;28.60;;
70313;SDS011;71040;47.526;18.986;2023-10-13T10:22:59;44.10;;;26.70;;
70313;SDS011;71040;47.526;18.986;2023-10-13T10:28:02;41.30;;;27.05;;
70313;SDS011;71040;47.526;18.986;2023-10-13T10:33:06;44.17;;;25.83;;
70313;SDS011;71040;47.526;18.986;2023-10-13T10:43:25;43.78;;;23.63;;
70313;SDS011;71040;47.526;18.986;2023-10-13T10:48:31;54.00;;;25.63;;
70313;SDS011;71040;47.526;18.986;2023-10-13T10:53:45;42.55;;;21.85;;
70313;SDS011;71040;47.526;18.986;2023-10-13T10:58:46;39.38;;;20.60;;
70313;SDS011;71040;47.526;18.986;2023-10-13T11:09:05;37.17;;;20.85;;
70313;SDS011;71040;47.526;18.986;2023-10-13T11:19:41;43.05;;;18.35;;
70313;SDS011;71040;47.526;18.986;2023-10-13T11:24:42;60.17;;;20.60;;
70313;SDS011;71040;47.526;18.986;2023-10-13T11:29:43;40.78;;;15.43;;
70313;SDS011;71040;47.526;18.986;2023-10-13T11:34:52;27.95;;;12.45;;
70313;SDS011;71040;47.526;18.986;2023-10-13T11:39:54;32.85;;;13.38;;
70313;SDS011;71040;47.526;18.986;2023-10-13T11:44:55;24.88;;;11.55;;
70313;SDS011;71040;47.526;18.986;2023-10-13T11:50:15;26.00;;;11.15;;
70313;SDS011;71040;47.526;18.986;2023-10-13T11:55:32;26.48;;;11.25;;
70313;SDS011;71040;47.526;18.986;2023-10-13T12:00:32;26.97;;;10.17;;
70313;SDS011;71040;47.526;18.986;2023-10-13T12:05:51;19.98;;;10.07;;
70313;SDS011;71040;47.526;18.986;2023-10-13T12:11:06;19.05;;;9.90;;
70313;SDS011;71040;47.526;18.986;2023-10-13T12:16:28;22.02;;;9.52;;
70313;SDS011;71040;47.526;18.986;2023-10-13T12:21:34;19.48;;;10.48;;
70313;SDS011;71040;47.526;18.986;2023-10-13T12:26:37;22.88;;;9.30;;
70313;SDS011;71040;47.526;18.986;2023-10-13T12:31:42;19.23;;;9.07;;
70313;SDS011;71040;47.526;18.986;2023-10-13T12:36:51;17.52;;;8.70;;
70313;SDS011;71040;47.526;18.986;2023-10-13T12:42:14;21.98;;;8.55;;
70313;SDS011;71040;47.526;18.986;2023-10-13T12:47:32;24.38;;;10.05;;
70313;SDS011;71040;47.526;18.986;2023-10-13T12:52:51;22.08;;;9.18;;
70313;SDS011;71040;47.526;18.986;2023-10-13T12:57:52;25.33;;;9.47;;
70313;SDS011;71040;47.526;18.986;2023-10-13T13:02:55;27.03;;;10.17;;
70313;SDS011;71040;47.526;18.986;2023-10-13T13:07:56;19.23;;;10.65;;
70313;SDS011;71040;47.526;18.986;2023-10-13T13:12:56;50.33;;;36.88;;
70313;SDS011;71040;47.526;18.986;2023-10-13T13:17:57;18.25;;;8.38;;
70313;SDS011;71040;47.526;18.986;2023-10-13T13:22:58;18.15;;;8.73;;
70313;SDS011;71040;47.526;18.986;2023-10-13T13:28:04;18.65;;;8.02;;
70313;SDS011;71040;47.526;18.986;2023-10-13T13:33:05;20.25;;;8.05;;
70313;SDS011;71040;47.526;18.986;2023-10-13T13:38:11;21.73;;;8.30;;
70313;SDS011;71040;47.526;18.986;2023-10-13T13:43:16;15.43;;;8.02;;
70313;SDS011;71040;47.526;18.986;2023-10-13T13:48:38;19.25;;;7.57;;
70313;SDS011;71040;47.526;18.986;2023-10-13T13:53:39;23.50;;;7.05;;
70313;SDS011;71040;47.526;18.986;2023-10-13T13:58:43;17.10;;;6.57;;
70313;SDS011;71040;47.526;18.986;2023-10-13T14:03:48;18.40;;;7.10;;
70313;SDS011;71040;47.526;18.986;2023-10-13T14:08:57;14.90;;;5.88;;
70313;SDS011;71040;47.526;18.986;2023-10-13T14:14:32;18.27;;;6.00;;
70313;SDS011;71040;47.526;18.986;2023-10-13T14:19:34;16.40;;;5.75;;
70313;SDS011;71040;47.526;18.986;2023-10-13T14:24:40;16.65;;;4.90;;
70313;SDS011;71040;47.526;18.986;2023-10-13T14:29:45;11.20;;;4.63;;
70313;SDS011;71040;47.526;18.986;2023-10-13T14:34:47;17.08;;;5.43;;
70313;SDS011;71040;47.526;18.986;2023-10-13T14:39:54;12.25;;;4.75;;
70313;SDS011;71040;47.526;18.986;2023-10-13T14:44:56;10.75;;;4.32;;
70313;SDS011;71040;47.526;18.986;2023-10-13T14:49:57;14.20;;;4.80;;
70313;SDS011;71040;47.526;18.986;2023-10-13T14:55:02;13.10;;;4.85;;
70313;SDS011;71040;47.526;18.986;2023-10-13T15:00:07;16.83;;;7.05;;
70313;SDS011;71040;47.526;18.986;2023-10-13T15:05:13;16.05;;;7.35;;
70313;SDS011;71040;47.526;18.986;2023-10-13T15:10:16;18.23;;;6.55;;
70313;SDS011;71040;47.526;18.986;2023-10-13T15:15:17;17.83;;;6.07;;
70313;SDS011;71040;47.526;18.986;2023-10-13T15:20:19;15.50;;;6.38;;
70313;SDS011;71040;47.526;18.986;2023-10-13T15:25:19;18.00;;;6.30;;
70313;SDS011;71040;47.526;18.986;2023-10-13T15:30:28;18.48;;;7.20;;
70313;SDS011;71040;47.526;18.986;2023-10-13T15:35:44;14.80;;;5.97;;
70313;SDS011;71040;47.526;18.986;2023-10-13T15:40:47;19.33;;;5.93;;
70313;SDS011;71040;47.526;18.986;2023-10-13T15:45:54;15.18;;;7.07;;
70313;SDS011;71040;47.526;18.986;2023-10-13T15:50:57;13.57;;;5.68;;
70313;SDS011;71040;47.526;18.986;2023-10-13T15:55:57;14.17;;;7.23;;
70313;SDS011;71040;47.526;18.986;2023-10-13T16:00:58;12.67;;;6.97;;
70313;SDS011;71040;47.526;18.986;2023-10-13T16:06:01;13.70;;;6.13;;
70313;SDS011;71040;47.526;18.986;2023-10-13T16:11:05;12.75;;;6.00;;
70313;SDS011;71040;47.526;18.986;2023-10-13T16:16:13;9.05;;;5.25;;
70313;SDS011;71040;47.526;18.986;2023-10-13T16:21:23;13.27;;;6.15;;
70313;SDS011;71040;47.526;18.986;2023-10-13T16:26:24;11.25;;;5.93;;
70313;SDS011;71040;47.526;18.986;2023-10-13T16:31:25;8.80;;;5.93;;
70313;SDS011;71040;47.526;18.986;2023-10-13T16:36:28;9.52;;;5.50;;
70313;SDS011;71040;47.526;18.986;2023-10-13T16:41:31;9.48;;;6.20;;
70313;SDS011;71040;47.526;18.986;2023-10-13T16:46:31;8.43;;;5.33;;
70313;SDS011;71040;47.526;18.986;2023-10-13T16:51:34;10.98;;;6.10;;
70313;SDS011;71040;47.526;18.986;2023-10-13T16:56:34;9.23;;;5.43;;
70313;SDS011;71040;47.526;18.986;2023-10-13T17:01:36;9.07;;;6.15;;
70313;SDS011;71040;47.526;18.986;2023-10-13T17:06:36;6.47;;;5.05;;
70313;SDS011;71040;47.526;18.986;2023-10-13T17:11:42;9.23;;;5.57;;
70313;SDS011;71040;47.526;18.986;2023-10-13T17:16:43;11.93;;;5.95;;
70313;SDS011;71040;47.526;18.986;2023-10-13T17:21:45;17.13;;;7.55;;
70313;SDS011;71040;47.526;18.986;2023-10-13T17:26:51;15.05;;;7.43;;
70313;SDS011;71040;47.526;18.986;2023-10-13T17:31:54;11.27;;;6.32;;
70313;SDS011;71040;47.526;18.986;2023-10-13T17:36:55;9.65;;;6.85;;
70313;SDS011;71040;47.526;18.986;2023-10-13T17:42:00;15.48;;;7.75;;
70313;SDS011;71040;47.526;18.986;2023-10-13T17:47:01;12.52;;;6.93;;
70313;SDS011;71040;47.526;18.986;2023-10-13T17:52:01;13.23;;;7.70;;
70313;SDS011;71040;47.526;18.986;2023-10-13T17:57:04;12.18;;;7.18;;
70313;SDS011;71040;47.526;18.986;2023-10-13T18:02:07;12.82;;;6.50;;
70313;SDS011;71040;47.526;18.986;2023-10-13T18:07:07;10.03;;;6.33;;
70313;SDS011;71040;47.526;18.986;2023-10-13T18:12:11;13.30;;;7.32;;
70313;SDS011;71040;47.526;18.986;2023-10-13T18:17:11;14.40;;;7.47;;
70313;SDS011;71040;47.526;18.986;2023-10-13T18:22:15;10.63;;;6.30;;
70313;SDS011;71040;47.526;18.986;2023-10-13T18:27:18;11.10;;;6.97;;
70313;SDS011;71040;47.526;18.986;2023-10-13T18:32:19;10.60;;;6.22;;
70313;SDS011;71040;47.526;18.986;2023-10-13T18:37:28;12.05;;;6.68;;
70313;SDS011;71040;47.526;18.986;2023-10-13T18:42:30;14.57;;;7.72;;
70313;SDS011;71040;47.526;18.986;2023-10-13T18:47:30;12.97;;;6.93;;
70313;SDS011;71040;47.526;18.986;2023-10-13T18:52:33;10.18;;;6.70;;
70313;SDS011;71040;47.526;18.986;2023-10-13T18:57:33;8.82;;;5.93;;
70313;SDS011;71040;47.526;18.986;2023-10-13T19:02:34;11.15;;;6.78;;
70313;SDS011;71040;47.526;18.986;2023-10-13T19:07:38;11.18;;;6.82;;
70313;SDS011;71040;47.526;18.986;2023-10-13T19:12:38;9.38;;;5.90;;
70313;SDS011;71040;47.526;18.986;2023-10-13T19:17:41;10.77;;;6.35;;
70313;SDS011;71040;47.526;18.986;2023-10-13T19:22:44;10.40;;;5.78;;
70313;SDS011;71040;47.526;18.986;2023-10-13T19:27:57;11.77;;;6.35;;
70313;SDS011;71040;47.526;18.986;2023-10-13T19:32:57;9.30;;;5.82;;
70313;SDS011;71040;47.526;18.986;2023-10-13T19:38:06;10.82;;;5.97;;
70313;SDS011;71040;47.526;18.986;2023-10-13T19:43:07;8.77;;;6.45;;
70313;SDS011;71040;47.526;18.986;2023-10-13T19:48:13;9.05;;;5.55;;
70313;SDS011;71040;47.526;18.986;2023-10-13T19:53:14;9.95;;;6.72;;
70313;SDS011;71040;47.526;18.986;2023-10-13T19:58:14;8.97;;;5.13;;
70313;SDS011;71040;47.526;18.986;2023-10-13T20:03:15;10.27;;;5.82;;
70313;SDS011;71040;47.526;18.986;2023-10-13T20:08:20;8.82;;;5.63;;
70313;SDS011;71040;47.526;18.986;2023-10-13T20:13:22;9.70;;;5.90;;
70313;SDS011;71040;47.526;18.986;2023-10-13T20:18:24;8.77;;;5.82;;
70313;SDS011;71040;47.526;18.986;2023-10-13T20:23:24;8.10;;;5.17;;
70313;SDS011;71040;47.526;18.986;2023-10-13T20:28:27;8.60;;;5.75;;
70313;SDS011;71040;47.526;18.986;2023-10-13T20:33:28;8.30;;;5.85;;
70313;SDS011;71040;47.526;18.986;2023-10-13T20:38:36;8.15;;;5.53;;
70313;SDS011;71040;47.526;18.986;2023-10-13T20:43:51;9.82;;;6.05;;
70313;SDS011;71040;47.526;18.986;2023-10-13T20:48:52;9.07;;;5.03;;
70313;SDS011;71040;47.526;18.986;2023-10-13T20:53:54;8.65;;;5.55;;
70313;SDS011;71040;47.526;18.986;2023-10-13T20:58:54;7.73;;;5.53;;
70313;SDS011;71040;47.526;18.986;2023-10-13T21:03:59;15.77;;;5.68;;
70313;SDS011;71040;47.526;18.986;2023-10-13T21:09:03;7.70;;;4.97;;
70313;SDS011;71040;47.526;18.986;2023-10-13T21:14:06;7.53;;;5.22;;
70313;SDS011;71040;47.526;18.986;2023-10-13T21:19:07;8.60;;;5.30;;
70313;SDS011;71040;47.526;18.986;2023-10-13T21:24:09;8.75;;;5.65;;
70313;SDS011;71040;47.526;18.986;2023-10-13T21:29:12;8.13;;;5.57;;
70313;SDS011;71040;47.526;18.986;2023-10-13T21:34:12;7.87;;;5.60;;
70313;SDS011;71040;47.526;18.986;2023-10-13T21:39:14;9.10;;;5.40;;
70313;SDS011;71040;47.526;18.986;2023-10-13T21:44:14;7.37;;;5.10;;
70313;SDS011;71040;47.526;18.986;2023-10-13T21:49:15;8.55;;;5.57;;
70313;SDS011;71040;47.526;18.986;2023-10-13T21:54:18;7.70;;;5.28;;
70313;SDS011;71040;47.526;18.986;2023-10-13T21:59:19;7.40;;;5.00;;
70313;SDS011;71040;47.526;18.986;2023-10-13T22:04:19;7.77;;;5.17;;
70313;SDS011;71040;47.526;18.986;2023-10-13T22:09:22;7.95;;;5.38;;
70313;SDS011;71040;47.526;18.986;2023-10-13T22:14:23;7.72;;;5.45;;
70313;SDS011;71040;47.526;18.986;2023-10-13T22:19:23;8.97;;;5.50;;
70313;SDS011;71040;47.526;18.986;2023-10-13T22:24:29;6.70;;;5.07;;
70313;SDS011;71040;47.526;18.986;2023-10-13T22:29:29;7.33;;;5.33;;
70313;SDS011;71040;47.526;18.986;2023-10-13T22:34:32;9.38;;;5.93;;
70313;SDS011;71040;47.526;18.986;2023-10-13T22:39:32;9.57;;;6.07;;
70313;SDS011;71040;47.526;18.986;2023-10-13T22:44:33;6.32;;;4.80;;
70313;SDS011;71040;47.526;18.986;2023-10-13T22:49:36;8.60;;;5.90;;
70313;SDS011;71040;47.526;18.986;2023-10-13T22:54:39;8.30;;;5.28;;
70313;SDS011;71040;47.526;18.986;2023-10-13T22:59:41;8.02;;;4.95;;
70313;SDS011;71040;47.526;18.986;2023-10-13T23:04:42;7.22;;;5.13;;
70313;SDS011;71040;47.526;18.986;2023-10-13T23:09:43;7.23;;;5.37;;
70313;SDS011;71040;47.526;18.986;2023-10-13T23:14:48;7.20;;;5.47;;
70313;SDS011;71040;47.526;18.986;2023-10-13T23:19:50;7.85;;;5.28;;
70313;SDS011;71040;47.526;18.986;2023-10-13T23:24:52;6.93;;;5.28;;
70313;SDS011;71040;47.526;18.986;2023-10-13T23:29:52;6.67;;;4.77;;
70313;SDS011;71040;47.526;18.986;2023-10-13T23:34:55;8.07;;;5.43;;
70313;SDS011;71040;47.526;18.986;2023-10-13T23:39:58;6.53;;;4.75;;
70313;SDS011;71040;47.526;18.986;2023-10-13T23:45:02;6.65;;;4.88;;
70313;SDS011;71040;47.526;18.986;2023-10-13T23:50:22;6.47;;;4.75;;
70313;SDS011;71040;47.526;18.986;2023-10-13T23:55:27;6.40;;;5.20;;
